Time;durP1;ratioP1;P1;durP2;ratioP2;P2;SDS_P1;SDS_P2;PMS_P1;PMS_P2;Temp;Humidity;BMP_temperature;BMP_pressure;BME280_temperature;BME280_humidity;BME280_pressure;Samples;Min_cycle;Max_cycle;Signal;HPM_P1;HPM_P2
2022/01/19 08:00:59;;;;;;;14.33;8.07;;;-1.30;99.90;;;;;;5133132;27;20268;-77
2022/01/19 08:03:25;;;;;;;20.00;10.97;;;-1.40;99.90;;;;;;5132529;28;20413;-76
2022/01/19 08:05:51;;;;;;;16.30;9.17;;;-1.40;99.90;;;;;;5131812;28;20187;-77
2022/01/19 08:08:16;;;;;;;17.50;9.90;;;-1.30;99.90;;;;;;5132197;27;20200;-77
2022/01/19 08:10:42;;;;;;;16.93;10.13;;;-1.40;99.90;;;;;;5130903;28;20181;-77
2022/01/19 08:13:09;;;;;;;21.97;11.40;;;-1.40;99.90;;;;;;5132182;27;20166;-77
2022/01/19 08:15:35;;;;;;;18.93;11.07;;;-1.40;99.90;;;;;;5130773;28;20826;-77
2022/01/19 08:18:01;;;;;;;20.57;11.27;;;-1.30;99.90;;;;;;5132362;27;20443;-77
2022/01/19 08:20:27;;;;;;;16.67;10.00;;;-1.20;99.90;;;;;;5133118;27;20667;-79
2022/01/19 08:22:53;;;;;;;16.73;10.60;;;-0.90;99.90;;;;;;5133478;27;20420;-77
2022/01/19 08:25:19;;;;;;;17.53;10.27;;;-0.30;99.90;;;;;;5133791;27;20167;-78
2022/01/19 08:27:45;;;;;;;16.67;10.00;;;0.40;99.90;;;;;;5134942;27;20195;-78
2022/01/19 08:30:12;;;;;;;16.73;9.83;;;1.00;99.90;;;;;;5133681;27;20487;-78
2022/01/19 08:32:38;;;;;;;13.23;8.83;;;1.50;99.90;;;;;;5134752;27;20167;-78
2022/01/19 08:35:06;;;;;;;13.73;9.50;;;1.80;99.90;;;;;;5135172;27;20432;-78
2022/01/19 08:37:32;;;;;;;13.47;9.43;;;2.10;99.90;;;;;;5133316;27;20191;-78
2022/01/19 08:39:58;;;;;;;13.87;9.47;;;2.10;99.90;;;;;;5132427;28;20536;-78
2022/01/19 08:42:24;;;;;;;14.23;9.73;;;1.90;99.90;;;;;;5132784;28;20537;-78
2022/01/19 08:44:50;;;;;;;14.73;8.93;;;2.10;99.90;;;;;;5132600;28;20439;-78
2022/01/19 08:47:16;;;;;;;12.17;8.63;;;2.00;99.90;;;;;;5133246;27;20270;-78
2022/01/19 08:49:42;;;;;;;11.23;8.30;;;2.00;99.90;;;;;;5134162;27;20203;-78
2022/01/19 08:52:08;;;;;;;10.07;7.90;;;1.90;99.90;;;;;;5134678;27;20177;-78
2022/01/19 08:54:33;;;;;;;10.07;8.43;;;1.80;99.90;;;;;;5133095;28;20171;-78
2022/01/19 08:57:01;;;;;;;11.37;7.97;;;1.90;99.90;;;;;;5136196;27;20192;-78
2022/01/19 08:59:28;;;;;;;11.57;7.77;;;1.70;99.90;;;;;;5134292;28;20208;-78
2022/01/19 09:01:54;;;;;;;10.77;7.87;;;1.70;99.90;;;;;;5135643;27;20172;-78
2022/01/19 09:04:19;;;;;;;11.73;8.27;;;1.80;99.90;;;;;;5136110;27;20538;-78
2022/01/19 09:06:46;;;;;;;10.00;8.27;;;2.20;99.90;;;;;;5136269;27;20187;-78
2022/01/19 09:09:12;;;;;;;10.00;7.70;;;2.70;99.90;;;;;;5136006;27;20175;-78
2022/01/19 09:11:37;;;;;;;11.27;8.47;;;3.20;99.90;;;;;;5125355;28;20261;-79
2022/01/19 09:14:06;;;;;;;10.20;7.63;;;3.70;99.90;;;;;;5121445;28;20206;-78
2022/01/19 09:16:35;;;;;;;11.93;7.90;;;3.90;99.90;;;;;;5123328;28;20206;-78
2022/01/19 09:19:02;;;;;;;11.00;7.57;;;3.90;99.90;;;;;;5121235;28;20663;-79
2022/01/19 09:21:28;;;;;;;10.47;7.20;;;4.20;99.90;;;;;;5120012;28;20172;-78
2022/01/19 09:23:53;;;;;;;7.80;6.93;;;4.60;99.90;;;;;;5121604;28;20209;-78
2022/01/19 09:26:19;;;;;;;8.97;6.90;;;4.90;99.90;;;;;;5119921;28;20218;-79
2022/01/19 09:28:44;;;;;;;8.23;6.73;;;5.20;99.90;;;;;;5121002;28;20172;-79
2022/01/19 09:31:11;;;;;;;8.73;6.70;;;5.10;99.90;;;;;;5120891;28;20186;-79
2022/01/19 09:33:38;;;;;;;8.67;6.27;;;5.40;99.90;;;;;;5122466;28;20271;-79
2022/01/19 09:36:17;;;;;;;8.17;6.63;;;5.30;99.90;;;;;;5121741;28;20202;-79
2022/01/19 09:38:42;;;;;;;7.57;6.03;;;5.00;99.90;;;;;;5120149;28;20217;-79
2022/01/19 09:41:08;;;;;;;7.83;6.23;;;5.00;99.90;;;;;;5121150;28;20179;-79
2022/01/19 09:43:35;;;;;;;7.03;5.93;;;5.40;99.90;;;;;;5122670;28;20573;-79
2022/01/19 09:46:01;;;;;;;8.27;6.47;;;5.80;99.90;;;;;;5122743;28;20230;-78
2022/01/19 09:48:28;;;;;;;7.77;5.93;;;6.10;99.90;;;;;;5129938;28;20259;-78
2022/01/19 09:50:56;;;;;;;8.40;6.40;;;6.50;99.90;;;;;;5128962;28;20168;-78
2022/01/19 09:53:23;;;;;;;10.17;6.80;;;6.80;99.90;;;;;;5123484;28;20203;-79
2022/01/19 09:55:49;;;;;;;8.73;6.10;;;6.70;99.90;;;;;;5122062;28;20223;-79
2022/01/19 09:58:17;;;;;;;7.53;5.60;;;6.90;99.90;;;;;;5121017;28;20237;-79
2022/01/19 10:00:43;;;;;;;7.77;5.73;;;7.20;99.90;;;;;;5121924;28;20223;-79
2022/01/19 10:03:14;;;;;;;7.50;5.87;;;7.70;99.90;;;;;;5123133;28;20641;-79
2022/01/19 10:06:05;;;;;;;7.67;5.83;;;8.00;99.90;;;;;;5119991;28;20184;-79
2022/01/19 10:08:35;;;;;;;7.43;6.20;;;8.50;99.90;;;;;;5121416;28;20167;-79
2022/01/19 10:17:03;;;;;;;8.23;6.77;;;9.40;99.90;;;;;;5121008;28;20202;-79
2022/01/19 10:19:45;;;;;;;10.93;6.10;;;9.80;99.90;;;;;;5119174;28;20332;-79
2022/01/19 10:22:27;;;;;;;10.67;8.73;;;10.30;99.90;;;;;;5118454;28;20536;-79
2022/01/19 10:24:56;;;;;;;9.23;6.80;;;10.40;97.60;;;;;;5118727;28;20521;-79
2022/01/19 10:27:30;;;;;;;9.73;7.53;;;10.60;98.00;;;;;;5120888;28;20649;-79
2022/01/19 10:30:21;;;;;;;12.87;7.50;;;10.70;97.20;;;;;;5119638;28;20175;-80
2022/01/19 10:32:55;;;;;;;21.87;17.23;;;10.70;94.30;;;;;;5120079;28;20177;-79
2022/01/19 10:35:37;;;;;;;10.43;7.83;;;11.00;95.80;;;;;;5120628;28;20176;-79
2022/01/19 10:38:25;;;;;;;20.13;14.67;;;11.10;93.50;;;;;;5122068;28;20265;-79
2022/01/19 10:41:02;;;;;;;12.40;9.70;;;11.10;94.30;;;;;;5124312;28;20163;-79
2022/01/19 10:43:37;;;;;;;19.60;15.17;;;11.40;92.30;;;;;;5135276;28;20174;-79
2022/01/19 10:46:33;;;;;;;13.17;11.50;;;11.70;92.60;;;;;;5122863;28;20218;-80
2022/01/19 10:49:10;;;;;;;5.60;4.70;;;11.90;90.60;;;;;;5122456;28;20188;-79
2022/01/19 10:51:47;;;;;;;4.23;3.80;;;12.00;84.70;;;;;;5122317;28;20545;-79
2022/01/19 10:54:19;;;;;;;7.33;6.00;;;12.10;83.10;;;;;;5121531;28;20664;-79
2022/01/19 10:56:48;;;;;;;14.00;8.43;;;12.20;82.60;;;;;;5121225;28;20184;-79
2022/01/19 10:59:16;;;;;;;4.87;3.30;;;12.20;79.10;;;;;;5120039;28;20198;-80
2022/01/19 11:01:46;;;;;;;6.43;3.33;;;12.00;77.60;;;;;;5120744;28;20171;-79
2022/01/19 11:04:21;;;;;;;3.43;3.03;;;12.00;77.30;;;;;;5118946;28;20224;-79
2022/01/19 11:06:48;;;;;;;10.13;7.40;;;12.10;75.40;;;;;;5119006;28;20327;-79
2022/01/19 11:09:15;;;;;;;10.73;6.83;;;11.50;74.70;;;;;;5120023;28;20195;-78
2022/01/19 11:11:44;;;;;;;10.13;7.73;;;11.30;74.60;;;;;;5121570;28;20644;-78
2022/01/19 11:14:16;;;;;;;10.30;8.03;;;11.30;74.00;;;;;;5118707;28;20234;-78
2022/01/19 11:16:43;;;;;;;10.37;7.87;;;11.30;73.90;;;;;;5120697;28;20528;-79
2022/01/19 11:19:10;;;;;;;9.03;5.20;;;11.40;74.20;;;;;;5119081;28;20172;-79
2022/01/19 11:22:05;;;;;;;11.80;7.87;;;11.00;73.00;;;;;;5119252;28;20200;-79
2022/01/19 11:24:54;;;;;;;8.17;5.10;;;11.00;73.50;;;;;;5094030;28;20275;-79
2022/01/19 11:27:20;;;;;;;11.53;7.73;;;10.60;73.70;;;;;;5120143;28;20244;-79
2022/01/19 11:30:26;;;;;;;5.70;3.67;;;11.00;76.00;;;;;;5122300;28;20204;-79
2022/01/19 11:33:28;;;;;;;7.40;6.47;;;11.10;73.10;;;;;;5123389;28;20179;-79
2022/01/19 11:35:56;;;;;;;3.90;3.43;;;11.30;74.20;;;;;;5115960;28;20223;-79
2022/01/19 11:38:38;;;;;;;3.70;2.70;;;11.80;73.10;;;;;;5122758;28;20171;-79
2022/01/19 11:41:42;;;;;;;6.87;4.00;;;12.10;71.20;;;;;;5122845;28;20523;-78
2022/01/19 11:44:28;;;;;;;9.10;6.20;;;11.80;69.50;;;;;;5122278;28;20173;-79
2022/01/19 11:46:56;;;;;;;3.80;3.10;;;11.70;71.10;;;;;;5119913;28;20210;-79
2022/01/19 11:50:00;;;;;;;5.37;4.07;;;11.60;69.40;;;;;;5123494;28;20270;-79
2022/01/19 11:52:34;;;;;;;12.00;8.60;;;11.60;72.40;;;;;;5065655;28;20186;-79
2022/01/19 11:55:18;;;;;;;5.87;3.80;;;11.70;70.70;;;;;;5114469;28;20210;-79
2022/01/19 11:57:46;;;;;;;7.67;5.93;;;11.60;69.00;;;;;;5118442;28;20187;-79
2022/01/19 12:00:21;;;;;;;6.97;6.13;;;11.90;71.40;;;;;;5116961;28;20194;-80
2022/01/19 12:02:50;;;;;;;4.83;3.07;;;11.90;69.70;;;;;;5116521;28;20268;-79
2022/01/19 12:05:19;;;;;;;8.37;5.60;;;12.20;68.40;;;;;;5117248;28;20550;-79
2022/01/19 12:08:12;;;;;;;6.73;5.50;;;11.80;66.20;;;;;;5118713;28;20274;-79
2022/01/19 12:10:44;;;;;;;4.63;3.40;;;11.70;68.70;;;;;;5115848;28;20203;-80
2022/01/19 12:16:30;;;;;;;15.57;11.70;;;12.40;65.30;;;;;;5119597;28;20227;-79
2022/01/19 12:19:06;;;;;;;9.83;7.13;;;11.90;67.00;;;;;;5118575;28;20188;-80
2022/01/19 12:21:35;;;;;;;4.93;3.57;;;11.90;67.70;;;;;;5119763;28;20150;-79
2022/01/19 12:24:21;;;;;;;5.90;4.77;;;11.60;67.20;;;;;;5117441;28;20264;-79
2022/01/19 12:26:58;;;;;;;4.50;3.33;;;11.70;68.90;;;;;;5118680;28;20184;-79
2022/01/19 12:29:33;;;;;;;4.37;3.27;;;11.40;66.40;;;;;;5117641;28;20611;-79
2022/01/19 12:32:08;;;;;;;9.20;6.07;;;11.10;67.40;;;;;;5117412;28;20221;-79
2022/01/19 12:34:56;;;;;;;6.83;3.57;;;10.80;69.30;;;;;;5117568;28;20170;-79
2022/01/19 12:37:33;;;;;;;6.57;4.93;;;10.40;70.20;;;;;;5117140;28;20195;-79
2022/01/19 12:40:04;;;;;;;6.97;5.30;;;10.30;71.80;;;;;;5119682;28;20504;-80
2022/01/19 12:42:49;;;;;;;9.10;5.50;;;9.90;73.30;;;;;;5118653;28;20186;-79
2022/01/19 12:45:30;;;;;;;5.50;4.87;;;9.30;74.50;;;;;;5118120;28;20168;-80
2022/01/19 12:48:00;;;;;;;4.97;4.13;;;8.80;76.50;;;;;;5121741;28;20175;-79
2022/01/19 12:50:28;;;;;;;6.87;4.77;;;8.70;76.80;;;;;;5120965;28;20274;-78
2022/01/19 12:53:00;;;;;;;7.93;4.83;;;8.70;79.00;;;;;;5120772;28;20167;-78
2022/01/19 12:55:29;;;;;;;13.57;8.97;;;8.80;77.90;;;;;;5122245;28;20171;-79
2022/01/19 12:57:57;;;;;;;7.83;4.73;;;8.70;76.90;;;;;;5118969;28;20192;-78
2022/01/19 13:00:26;;;;;;;7.27;5.50;;;8.10;78.60;;;;;;5118393;28;20239;-78
2022/01/19 13:02:52;;;;;;;5.90;4.83;;;8.00;80.00;;;;;;5118112;28;20658;-76
2022/01/19 13:05:20;;;;;;;6.23;5.17;;;8.10;81.60;;;;;;5116094;28;20254;-76
2022/01/19 13:07:46;;;;;;;7.40;5.13;;;8.20;79.70;;;;;;5117482;28;20635;-76
2022/01/19 13:15:48;;;;;;;7.63;5.47;;;7.90;80.50;;;;;;5117395;28;20207;-77
2022/01/19 13:18:44;;;;;;;6.07;4.87;;;7.90;82.40;;;;;;5117146;28;20170;-76
2022/01/19 13:21:13;;;;;;;8.00;4.70;;;7.90;82.40;;;;;;5117669;28;20151;-78
2022/01/19 13:23:52;;;;;;;6.47;4.77;;;7.80;80.70;;;;;;5121843;28;20584;-78
2022/01/19 13:26:18;;;;;;;6.07;4.80;;;7.70;83.10;;;;;;5118259;27;20662;-78
2022/01/19 13:28:44;;;;;;;8.33;6.10;;;7.70;83.00;;;;;;5116727;28;20183;-78
2022/01/19 13:31:17;;;;;;;8.27;4.93;;;7.80;82.50;;;;;;5118047;28;20168;-79
2022/01/19 13:33:53;;;;;;;6.10;4.73;;;7.70;81.90;;;;;;5118289;28;20159;-79
2022/01/19 13:36:27;;;;;;;10.93;6.00;;;7.60;82.30;;;;;;5118441;28;20190;-79
2022/01/19 13:38:54;;;;;;;7.33;4.80;;;7.60;82.60;;;;;;5120294;28;20156;-79
2022/01/19 13:41:20;;;;;;;6.63;5.07;;;7.60;82.40;;;;;;5120580;28;20642;-79
2022/01/19 13:43:46;;;;;;;5.27;4.50;;;7.40;84.10;;;;;;5120273;28;20170;-78
2022/01/19 13:46:17;;;;;;;5.67;4.93;;;7.40;83.90;;;;;;5121780;28;20195;-79
2022/01/19 13:48:47;;;;;;;7.50;4.27;;;7.40;84.10;;;;;;5131313;28;20161;-78
2022/01/19 13:51:15;;;;;;;7.17;5.20;;;7.20;84.70;;;;;;5133522;28;20650;-78
2022/01/19 13:53:46;;;;;;;7.43;5.50;;;7.20;84.80;;;;;;5117823;28;20199;-78
2022/01/19 13:56:15;;;;;;;6.27;4.60;;;7.10;85.50;;;;;;5117839;28;20696;-78
2022/01/19 13:58:44;;;;;;;6.43;5.17;;;7.10;85.50;;;;;;5117406;28;20181;-79
2022/01/19 14:01:15;;;;;;;6.50;4.90;;;7.00;86.50;;;;;;5119052;28;20163;-78
2022/01/19 14:03:56;;;;;;;7.87;4.97;;;7.10;87.00;;;;;;5118457;28;20545;-78
2022/01/19 14:06:29;;;;;;;9.27;5.73;;;7.10;87.00;;;;;;5116563;28;20206;-78
2022/01/19 14:09:07;;;;;;;7.40;4.93;;;7.00;87.60;;;;;;5119744;28;20165;-78
2022/01/19 14:11:33;;;;;;;6.87;4.83;;;6.80;88.10;;;;;;5117015;28;20511;-78
2022/01/19 14:14:14;;;;;;;6.87;5.00;;;6.70;89.00;;;;;;5116601;28;20177;-78
2022/01/19 14:16:46;;;;;;;7.13;5.43;;;6.60;89.40;;;;;;5116213;28;20195;-79
2022/01/19 14:19:29;;;;;;;7.40;5.50;;;6.40;90.30;;;;;;5117027;28;20659;-78
2022/01/19 14:22:32;;;;;;;7.70;5.53;;;6.40;90.70;;;;;;5116860;28;20168;-78
2022/01/19 14:25:07;;;;;;;6.53;4.67;;;6.20;90.90;;;;;;5116054;28;20188;-78
2022/01/19 14:27:53;;;;;;;8.63;5.40;;;6.10;91.40;;;;;;5117541;28;20192;-78
2022/01/19 14:30:23;;;;;;;9.00;6.60;;;6.00;91.70;;;;;;5115920;28;20220;-78
2022/01/19 14:32:55;;;;;;;7.63;6.00;;;5.90;92.10;;;;;;5116913;28;20631;-78
2022/01/19 14:35:29;;;;;;;10.90;5.90;;;5.70;92.50;;;;;;5115636;28;20177;-78
2022/01/19 14:38:00;;;;;;;10.03;5.93;;;5.70;92.80;;;;;;5117117;28;20234;-78
2022/01/19 14:40:27;;;;;;;7.07;5.27;;;5.60;93.20;;;;;;5115635;28;20541;-79
2022/01/19 14:42:53;;;;;;;9.37;6.47;;;5.60;93.70;;;;;;5116672;28;20175;-78
2022/01/19 14:45:26;;;;;;;10.90;6.77;;;5.40;94.30;;;;;;5116497;27;20191;-78
2022/01/19 14:47:54;;;;;;;9.23;6.37;;;5.30;94.80;;;;;;5115553;28;20255;-79
2022/01/19 14:50:34;;;;;;;12.90;7.53;;;5.20;95.30;;;;;;5116314;28;20203;-79
2022/01/19 14:52:59;;;;;;;10.73;7.30;;;5.00;96.20;;;;;;5117062;28;20184;-78
2022/01/19 14:55:28;;;;;;;12.70;8.90;;;5.00;96.60;;;;;;5117205;28;20180;-79
2022/01/19 14:57:55;;;;;;;10.83;7.93;;;4.90;97.20;;;;;;5116276;28;20176;-79
2022/01/19 15:00:23;;;;;;;13.70;8.97;;;4.90;97.20;;;;;;5116090;28;20203;-79
2022/01/19 15:02:52;;;;;;;10.27;7.43;;;4.80;97.80;;;;;;5115957;28;20263;-79
2022/01/19 15:05:21;;;;;;;13.80;8.40;;;4.70;98.10;;;;;;5116538;28;20181;-79
2022/01/19 15:07:47;;;;;;;13.27;8.63;;;4.60;98.50;;;;;;5118096;28;20203;-79
2022/01/19 15:10:13;;;;;;;12.47;8.37;;;4.60;99.20;;;;;;5117840;28;20199;-79
2022/01/19 15:12:40;;;;;;;12.77;9.27;;;4.50;99.60;;;;;;5115715;28;20173;-79
2022/01/19 15:15:09;;;;;;;13.07;7.87;;;4.50;99.90;;;;;;5115393;28;20181;-79
2022/01/19 15:17:36;;;;;;;13.93;8.73;;;4.40;99.90;;;;;;5115513;28;20196;-79
2022/01/19 15:20:02;;;;;;;13.63;8.47;;;4.40;99.90;;;;;;5118447;28;20679;-78
2022/01/19 15:22:27;;;;;;;12.73;7.70;;;4.30;99.90;;;;;;5120113;28;20584;-78
2022/01/19 15:24:54;;;;;;;13.10;8.77;;;4.20;99.90;;;;;;5119087;28;20209;-79
2022/01/19 15:27:19;;;;;;;16.40;9.97;;;4.10;99.90;;;;;;5114463;28;20200;-78
2022/01/19 15:29:45;;;;;;;19.57;10.90;;;3.90;99.90;;;;;;5116137;28;20246;-78
2022/01/19 15:32:11;;;;;;;14.83;10.03;;;3.90;99.90;;;;;;5121363;28;20217;-79
2022/01/19 15:34:36;;;;;;;16.37;11.87;;;3.90;99.90;;;;;;5117192;28;20168;-79
2022/01/19 15:37:03;;;;;;;14.20;10.03;;;3.70;99.90;;;;;;5116731;28;20202;-79
2022/01/19 15:39:28;;;;;;;16.70;10.73;;;3.60;99.90;;;;;;5117912;28;20632;-79
2022/01/19 15:41:54;;;;;;;22.97;14.03;;;3.50;99.90;;;;;;5118829;28;20228;-78
2022/01/19 15:44:20;;;;;;;22.17;13.83;;;3.50;99.90;;;;;;5118136;28;20628;-79
2022/01/19 15:46:45;;;;;;;20.70;12.47;;;3.50;99.90;;;;;;5116933;28;20245;-78
2022/01/19 15:49:11;;;;;;;16.33;10.87;;;3.30;99.90;;;;;;5116850;28;20231;-79
2022/01/19 15:51:38;;;;;;;29.33;16.60;;;3.20;99.90;;;;;;5118225;28;20171;-78
2022/01/19 15:54:04;;;;;;;24.80;15.00;;;3.10;99.90;;;;;;5116117;28;20179;-79
2022/01/19 15:56:30;;;;;;;22.57;12.23;;;3.00;99.90;;;;;;5114277;28;20195;-78
2022/01/19 15:58:55;;;;;;;15.90;11.10;;;2.90;99.90;;;;;;5115585;28;20235;-78
2022/01/19 16:01:21;;;;;;;20.57;12.50;;;2.80;99.90;;;;;;5114758;28;20266;-78
2022/01/19 16:03:47;;;;;;;27.77;14.40;;;;;;;;;;5116445;28;20175;-78
2022/01/19 16:06:13;;;;;;;24.97;14.30;;;2.70;99.90;;;;;;5115531;28;20199;-79
2022/01/19 16:08:39;;;;;;;23.23;14.50;;;;;;;;;;5116684;28;20170;-79
2022/01/19 16:11:04;;;;;;;18.77;11.67;;;2.60;99.90;;;;;;5115773;28;20195;-79
2022/01/19 16:13:30;;;;;;;20.93;12.90;;;;;;;;;;5114231;28;20233;-78
2022/01/19 16:15:56;;;;;;;20.43;12.63;;;2.40;99.90;;;;;;5113789;28;20201;-78
2022/01/19 16:18:22;;;;;;;18.07;13.10;;;;;;;;;;5115322;28;20259;-78
2022/01/19 16:20:49;;;;;;;17.60;11.33;;;2.30;99.90;;;;;;5116312;28;20187;-78
2022/01/19 16:26:06;;;;;;;12.97;7.60;;;2.10;99.90;;;;;;5119830;28;20428;-78
2022/01/19 16:28:33;;;;;;;15.93;10.87;;;;;;;;;;5118328;28;20179;-78
2022/01/19 16:30:59;;;;;;;25.03;13.40;;;;;;;;;;5120158;28;20456;-78
2022/01/19 16:33:25;;;;;;;18.47;10.83;;;;;;;;;;5118709;28;20842;-78
2022/01/19 16:35:51;;;;;;;15.80;10.63;;;2.10;99.90;;;;;;5118955;28;20425;-78
2022/01/19 16:38:16;;;;;;;32.87;18.57;;;2.10;99.90;;;;;;5118459;28;20449;-78
2022/01/19 16:40:48;;;;;;;13.90;9.33;;;2.00;99.90;;;;;;5118789;28;20255;-78
2022/01/19 16:43:15;;;;;;;13.80;9.70;;;2.00;99.90;;;;;;5117071;28;20251;-78
2022/01/19 16:45:42;;;;;;;13.70;8.63;;;2.00;99.90;;;;;;5116895;28;20454;-79
2022/01/19 16:48:10;;;;;;;13.07;8.37;;;2.00;99.90;;;;;;5118318;28;20428;-78
2022/01/19 16:50:37;;;;;;;13.23;8.40;;;1.80;99.90;;;;;;5117084;28;20992;-78
2022/01/19 16:53:03;;;;;;;15.33;10.17;;;1.90;99.90;;;;;;5118275;28;20752;-78
2022/01/19 16:55:29;;;;;;;15.70;9.23;;;1.80;99.90;;;;;;5118167;28;20447;-79
2022/01/19 16:57:55;;;;;;;13.30;8.00;;;;;;;;;;5118652;28;20179;-79
2022/01/19 17:00:21;;;;;;;8.47;5.30;;;1.70;99.90;;;;;;5117764;28;20215;-78
2022/01/19 17:02:47;;;;;;;13.17;8.17;;;1.70;99.90;;;;;;5116750;28;20224;-78
2022/01/19 17:05:13;;;;;;;14.20;9.00;;;;;;;;;;5117394;28;20176;-78
2022/01/19 17:07:38;;;;;;;14.73;8.63;;;1.80;99.90;;;;;;5117949;28;20199;-78
2022/01/19 17:10:10;;;;;;;14.17;8.43;;;1.70;99.90;;;;;;5116851;28;20176;-78
2022/01/19 17:12:38;;;;;;;17.40;9.00;;;1.70;99.90;;;;;;5118337;28;20163;-78
2022/01/19 17:15:16;;;;;;;12.47;6.83;;;1.60;99.90;;;;;;5118341;28;20409;-78
2022/01/19 17:17:51;;;;;;;14.63;9.60;;;1.70;99.90;;;;;;5116661;28;20449;-78
2022/01/19 17:20:20;;;;;;;15.30;7.90;;;;;;;;;;5118290;28;20828;-78
2022/01/19 17:22:47;;;;;;;12.10;6.60;;;1.70;99.90;;;;;;5118453;28;20405;-77
2022/01/19 17:25:13;;;;;;;14.47;8.90;;;2.80;99.90;;;;;;5116854;28;20456;-78
2022/01/19 17:27:39;;;;;;;13.67;8.17;;;1.60;99.90;;;;;;5117983;28;20437;-78
2022/01/19 17:30:06;;;;;;;18.23;9.03;;;1.60;99.90;;;;;;5116836;28;20416;-78
2022/01/19 17:32:34;;;;;;;11.97;7.13;;;;;;;;;;5116522;28;20187;-78
2022/01/19 17:35:01;;;;;;;12.70;8.23;;;;;;;;;;5119916;28;20420;-79
2022/01/19 17:37:27;;;;;;;10.33;6.17;;;;;;;;;;5122315;28;20440;-78
2022/01/19 17:39:53;;;;;;;5.63;4.53;;;;;;;;;;5121353;28;20457;-78
2022/01/19 17:42:22;;;;;;;10.13;7.07;;;1.60;99.90;;;;;;5127632;28;20405;-78
2022/01/19 17:44:49;;;;;;;12.60;6.67;;;1.70;99.90;;;;;;5130819;28;20424;-78
2022/01/19 17:47:24;;;;;;;12.07;7.23;;;;;;;;;;5131166;27;20191;-78
2022/01/19 17:52:22;;;;;;;10.77;7.13;;;;;;;;;;5120770;28;20420;-78
2022/01/19 17:54:48;;;;;;;12.20;7.13;;;;;;;;;;5118834;28;21054;-78
2022/01/19 17:57:15;;;;;;;14.17;8.13;;;;;;;;;;5118527;28;20919;-78
2022/01/19 17:59:41;;;;;;;15.77;8.00;;;;;;;;;;5118966;28;20468;-79
2022/01/19 18:02:08;;;;;;;10.90;7.37;;;1.70;99.90;;;;;;5118434;28;20863;-79
2022/01/19 18:04:34;;;;;;;10.37;5.73;;;;;;;;;;5118323;28;20484;-78
2022/01/19 18:07:02;;;;;;;15.10;9.10;;;;;;;;;;5119715;28;20429;-79
2022/01/19 18:09:28;;;;;;;13.20;8.50;;;;;;;;;;5117781;28;20466;-78
2022/01/19 18:11:54;;;;;;;12.23;7.57;;;1.70;99.90;;;;;;5119359;28;20405;-78
2022/01/19 18:14:19;;;;;;;12.40;7.33;;;1.70;99.90;;;;;;5121192;28;20682;-78
2022/01/19 18:16:45;;;;;;;12.47;8.13;;;1.70;99.90;;;;;;5119414;28;20202;-80
2022/01/19 18:19:11;;;;;;;16.50;7.87;;;;;;;;;;5118478;28;20266;-78
2022/01/19 18:21:37;;;;;;;14.90;6.87;;;;;;;;;;5121417;28;20167;-79
2022/01/19 18:24:03;;;;;;;16.27;9.10;;;2.00;99.90;;;;;;5119995;28;20451;-78
2022/01/19 18:26:29;;;;;;;13.30;8.50;;;2.20;99.90;;;;;;5119924;28;20198;-78
2022/01/19 18:28:55;;;;;;;13.20;8.83;;;;;;;;;;5120089;28;20171;-78
2022/01/19 18:31:22;;;;;;;9.17;5.67;;;2.00;99.90;;;;;;5120159;28;20179;-79
2022/01/19 18:33:49;;;;;;;12.03;6.57;;;2.20;99.90;;;;;;5119351;28;20413;-78
2022/01/19 18:36:15;;;;;;;8.53;5.30;;;2.20;99.90;;;;;;5119685;28;20985;-79
2022/01/19 18:38:42;;;;;;;15.37;7.77;;;2.20;99.90;;;;;;5121802;28;20409;-79
2022/01/19 18:41:10;;;;;;;18.23;8.67;;;2.10;99.90;;;;;;5121809;28;20953;-79
2022/01/19 18:43:37;;;;;;;11.13;7.23;;;2.20;99.90;;;;;;5121217;28;20418;-79
2022/01/19 18:46:04;;;;;;;12.13;7.73;;;;;;;;;;5120217;28;20523;-79
2022/01/19 18:48:33;;;;;;;10.27;6.93;;;2.00;99.90;;;;;;5121571;28;20175;-80
2022/01/19 18:51:01;;;;;;;12.67;7.73;;;;;;;;;;5121399;28;20670;-79
2022/01/19 18:53:26;;;;;;;13.80;7.10;;;2.30;99.90;;;;;;5122699;28;20768;-78
2022/01/19 18:55:53;;;;;;;17.27;7.37;;;2.00;99.90;;;;;;5118966;28;20196;-79
2022/01/19 18:58:19;;;;;;;13.33;7.40;;;;;;;;;;5119325;28;20584;-79
2022/01/19 19:00:48;;;;;;;10.93;6.00;;;;;;;;;;5119360;28;20461;-78
2022/01/19 19:03:15;;;;;;;18.53;10.47;;;1.90;99.90;;;;;;5122141;28;20397;-79
2022/01/19 19:05:42;;;;;;;17.43;10.33;;;1.80;99.90;;;;;;5118459;28;20494;-79
2022/01/19 19:08:08;;;;;;;18.57;11.67;;;;;;;;;;5128745;28;20406;-78
2022/01/19 19:13:03;;;;;;;13.07;7.70;;;1.90;99.90;;;;;;5125816;28;20963;-78
2022/01/19 19:15:29;;;;;;;10.93;6.87;;;1.70;99.90;;;;;;5124934;28;20183;-78
2022/01/19 19:17:55;;;;;;;18.40;10.33;;;2.20;99.90;;;;;;5123775;28;20171;-77
2022/01/19 19:20:21;;;;;;;15.07;9.33;;;1.80;99.90;;;;;;5121215;28;20420;-78
2022/01/19 19:22:47;;;;;;;11.90;7.90;;;2.00;99.90;;;;;;5117239;28;20175;-77
2022/01/19 19:25:18;;;;;;;11.97;7.83;;;1.90;99.90;;;;;;5116052;28;20203;-77
2022/01/19 19:27:50;;;;;;;13.67;8.43;;;1.90;99.90;;;;;;5116079;28;20444;-78
2022/01/19 19:30:17;;;;;;;16.40;8.83;;;1.80;99.90;;;;;;5117464;28;20413;-77
2022/01/19 19:32:43;;;;;;;19.93;9.50;;;1.90;99.90;;;;;;5114947;28;20420;-78
2022/01/19 19:35:12;;;;;;;15.13;8.43;;;1.80;99.90;;;;;;5117211;28;20180;-78
2022/01/19 19:37:38;;;;;;;15.73;8.80;;;1.80;99.90;;;;;;5117310;28;20440;-78
2022/01/19 19:40:06;;;;;;;15.77;8.90;;;1.80;99.90;;;;;;5116692;28;20553;-79
2022/01/19 19:42:32;;;;;;;17.00;9.00;;;1.80;99.90;;;;;;5115536;28;20175;-78
2022/01/19 19:44:58;;;;;;;14.07;7.73;;;;;;;;;;5115393;28;20174;-78
2022/01/19 19:47:24;;;;;;;11.37;7.50;;;;;;;;;;5117588;28;20470;-79
2022/01/19 19:49:50;;;;;;;5.43;3.37;;;;;;;;;;5117782;28;20413;-79
2022/01/19 19:52:16;;;;;;;11.77;8.00;;;;;;;;;;5118675;28;20447;-79
2022/01/19 19:54:42;;;;;;;14.13;7.53;;;1.80;99.90;;;;;;5117871;28;20414;-78
2022/01/19 19:57:08;;;;;;;17.83;9.90;;;;;;;;;;5118995;28;20202;-79
2022/01/19 19:59:34;;;;;;;11.60;7.30;;;1.80;99.90;;;;;;5119082;28;20615;-78
2022/01/19 20:02:00;;;;;;;13.50;7.97;;;1.60;99.90;;;;;;5117704;28;20175;-78
2022/01/19 20:04:26;;;;;;;11.33;6.80;;;1.70;99.90;;;;;;5118662;28;20179;-78
2022/01/19 20:06:52;;;;;;;12.73;8.03;;;;;;;;;;5116431;28;20191;-78
2022/01/19 20:09:18;;;;;;;10.33;6.97;;;1.90;99.90;;;;;;5116239;28;20535;-78
2022/01/19 20:11:44;;;;;;;14.90;8.13;;;1.80;99.90;;;;;;5115356;28;20182;-78
2022/01/19 20:14:11;;;;;;;10.50;6.53;;;;;;;;;;5116155;28;20266;-78
2022/01/19 20:16:37;;;;;;;9.90;5.17;;;1.80;99.90;;;;;;5118056;28;20563;-78
2022/01/19 20:19:03;;;;;;;11.80;6.83;;;1.70;99.90;;;;;;5117570;28;20191;-79
2022/01/19 20:21:30;;;;;;;11.23;7.67;;;;;;;;;;5117795;28;20478;-79
2022/01/19 20:23:56;;;;;;;9.07;6.27;;;1.70;99.90;;;;;;5117956;28;20921;-78
2022/01/19 20:26:22;;;;;;;8.97;6.10;;;;;;;;;;5118521;28;20845;-79
2022/01/19 20:28:48;;;;;;;10.57;5.20;;;1.80;99.90;;;;;;5120379;28;20401;-79
2022/01/19 20:31:15;;;;;;;7.63;5.20;;;1.80;99.90;;;;;;5117894;28;20183;-78
2022/01/19 20:33:41;;;;;;;4.60;4.13;;;;;;;;;;5117482;28;20184;-79
2022/01/19 20:36:08;;;;;;;7.07;4.73;;;1.70;99.90;;;;;;5116791;28;20436;-79
2022/01/19 20:38:41;;;;;;;6.03;4.37;;;1.70;99.90;;;;;;5117883;28;20964;-79
2022/01/19 20:41:12;;;;;;;4.43;3.30;;;1.80;99.90;;;;;;5114803;28;20856;-78
2022/01/19 20:43:38;;;;;;;7.13;4.57;;;1.70;99.90;;;;;;5117070;28;20488;-78
2022/01/19 20:46:05;;;;;;;7.03;4.83;;;1.70;99.90;;;;;;5114490;28;20798;-79
2022/01/19 20:48:32;;;;;;;8.33;4.47;;;1.70;99.90;;;;;;5116204;28;20752;-80
2022/01/19 20:50:58;;;;;;;5.13;3.37;;;1.70;99.90;;;;;;5117596;28;20175;-78
2022/01/19 20:53:25;;;;;;;8.20;4.30;;;1.70;99.90;;;;;;5117025;28;20668;-79
2022/01/19 20:55:51;;;;;;;7.80;4.30;;;1.80;99.90;;;;;;5118202;28;20202;-79
2022/01/19 20:58:17;;;;;;;14.00;6.37;;;1.80;99.90;;;;;;5124390;28;20259;-80
2022/01/19 21:00:44;;;;;;;4.13;3.07;;;1.70;99.90;;;;;;5124240;28;20264;-79
2022/01/19 21:03:10;;;;;;;4.67;3.73;;;;;;;;;;5124163;28;20413;-79
2022/01/19 21:05:36;;;;;;;3.10;2.20;;;;;;;;;;5116968;28;20416;-77
2022/01/19 21:08:03;;;;;;;5.20;3.13;;;1.80;99.90;;;;;;5118583;28;20478;-78
2022/01/19 21:10:29;;;;;;;7.70;3.87;;;;;;;;;;5121517;28;20924;-78
2022/01/19 21:12:58;;;;;;;8.57;3.80;;;1.90;99.90;;;;;;5119413;28;20401;-78
2022/01/19 21:15:24;;;;;;;5.10;3.70;;;;;;;;;;5120173;28;20176;-78
2022/01/19 21:17:50;;;;;;;5.90;3.87;;;;;;;;;;5119391;28;20523;-79
2022/01/19 21:20:16;;;;;;;6.47;3.40;;;1.80;99.90;;;;;;5121117;27;20945;-79
2022/01/19 21:22:44;;;;;;;4.97;3.80;;;1.80;99.90;;;;;;5122206;28;20172;-78
2022/01/19 21:25:10;;;;;;;5.57;3.33;;;;;;;;;;5120749;28;20409;-78
2022/01/19 21:27:36;;;;;;;5.30;4.37;;;;;;;;;;5117414;28;20457;-78
2022/01/19 21:30:04;;;;;;;8.53;3.87;;;1.80;99.90;;;;;;5117996;28;20417;-78
2022/01/19 21:32:30;;;;;;;6.00;3.73;;;;;;;;;;5118902;28;20432;-79
2022/01/19 21:34:56;;;;;;;10.53;3.73;;;1.70;99.90;;;;;;5121366;28;20406;-78